createdAt,value
2022-10-01T00:03:48.026Z,5.49
2022-10-01T00:08:51.357Z,5.48
2022-10-01T00:13:54.432Z,5.47
2022-10-01T00:19:00.426Z,5.45
2022-10-01T00:24:05.392Z,5.38
2022-10-01T00:29:15.777Z,5.34
2022-10-01T00:34:18.525Z,5.36
2022-10-01T00:39:21.880Z,5.39
2022-10-01T00:44:29.625Z,5.41
2022-10-01T00:49:35.429Z,5.40
2022-10-01T00:54:44.378Z,5.44
2022-10-01T00:59:48.201Z,5.48
2022-10-01T01:04:50.912Z,5.53
2022-10-01T01:09:54.627Z,5.60
2022-10-01T01:15:07.696Z,5.70
2022-10-01T01:20:13.127Z,5.76
2022-10-01T01:25:19.512Z,5.84
2022-10-01T01:30:22.523Z,5.90
2022-10-01T01:35:38.985Z,5.95
2022-10-01T01:40:45.064Z,5.99
2022-10-01T01:45:51.570Z,6.01
2022-10-01T01:51:04.529Z,5.99
2022-10-01T01:56:08.047Z,5.95
2022-10-01T02:01:34.886Z,5.91
2022-10-01T02:07:09.480Z,5.90
2022-10-01T02:12:18.171Z,5.83
2022-10-01T02:17:33.558Z,5.73
2022-10-01T02:22:48.063Z,5.63
2022-10-01T02:28:02.274Z,5.52
2022-10-01T02:33:09.800Z,5.43
2022-10-01T02:38:16.702Z,5.35
2022-10-01T02:43:25.238Z,5.26
2022-10-01T02:48:29.022Z,5.16
2022-10-01T02:53:37.253Z,5.09
2022-10-01T02:58:41.381Z,5.04
2022-10-01T03:03:44.183Z,4.99
2022-10-01T03:08:46.896Z,4.87
2022-10-01T03:13:50.002Z,4.74
2022-10-01T03:18:53.350Z,4.68
2022-10-01T03:23:56.101Z,4.63
2022-10-01T03:28:58.855Z,4.56
2022-10-01T03:34:01.705Z,4.51
2022-10-01T03:39:04.710Z,4.40
2022-10-01T03:44:07.439Z,4.32
2022-10-01T03:49:10.731Z,4.26
2022-10-01T03:54:13.320Z,4.20
2022-10-01T03:59:16.221Z,4.04
2022-10-01T04:04:19.049Z,3.89
2022-10-01T04:09:21.930Z,3.80
2022-10-01T04:14:24.648Z,3.74
2022-10-01T04:19:27.353Z,3.64
2022-10-01T04:24:30.063Z,3.54
2022-10-01T04:29:34.755Z,3.47
2022-10-01T04:34:52.947Z,3.41
2022-10-01T04:39:55.656Z,3.34
2022-10-01T04:44:58.439Z,3.29
2022-10-01T04:50:01.159Z,3.30
2022-10-01T04:55:04.691Z,3.30
2022-10-01T05:00:10.228Z,3.33
2022-10-01T05:05:13.666Z,3.35
2022-10-01T05:10:21.310Z,3.40
2022-10-01T05:15:24.003Z,3.48
2022-10-01T05:20:27.830Z,3.58
2022-10-01T05:25:30.541Z,3.72
2022-10-01T05:30:34.357Z,3.91
2022-10-01T05:35:37.094Z,4.13
2022-10-01T05:40:39.891Z,4.38
2022-10-01T05:45:43.181Z,4.61
2022-10-01T05:50:46.826Z,4.82
2022-10-01T05:55:49.498Z,5.07
2022-10-01T06:00:52.168Z,5.33
2022-10-01T06:05:55.713Z,5.55
2022-10-01T06:11:02.707Z,5.72
2022-10-01T06:16:05.573Z,5.93
2022-10-01T06:21:10.203Z,6.09
2022-10-01T06:26:12.886Z,6.24
2022-10-01T06:31:16.556Z,6.42
2022-10-01T06:36:19.328Z,6.65
2022-10-01T06:41:21.975Z,6.86
2022-10-01T06:46:24.703Z,7.10
2022-10-01T06:51:46.109Z,7.33
2022-10-01T06:56:48.837Z,7.46
2022-10-01T07:01:56.333Z,7.63
2022-10-01T07:06:59.356Z,7.88
2022-10-01T07:12:02.055Z,8.11
2022-10-01T07:17:04.754Z,8.34
2022-10-01T07:22:07.555Z,8.59
2022-10-01T07:27:10.175Z,8.82
2022-10-01T07:32:12.950Z,9.01
2022-10-01T07:37:15.771Z,9.20
2022-10-01T07:42:18.553Z,9.41
2022-10-01T07:47:22.777Z,9.59
2022-10-01T07:52:25.718Z,9.79
2022-10-01T07:57:28.801Z,9.98
2022-10-01T08:02:31.700Z,10.20
2022-10-01T08:07:35.939Z,10.41
2022-10-01T08:12:38.944Z,10.63
2022-10-01T08:17:42.603Z,10.85
2022-10-01T08:22:45.468Z,11.04
2022-10-01T08:27:48.594Z,11.24
2022-10-01T08:32:57.524Z,11.41
2022-10-01T08:38:06.897Z,11.56
2022-10-01T08:43:38.555Z,11.69
2022-10-01T08:49:08.899Z,11.84
2022-10-01T08:54:23.992Z,12.01
2022-10-01T08:59:39.614Z,12.19
2022-10-01T09:04:42.354Z,12.34
2022-10-01T09:09:56.237Z,12.53
2022-10-01T09:15:23.310Z,12.71
2022-10-01T09:20:36.584Z,12.90
2022-10-01T09:25:40.412Z,13.04
2022-10-01T09:30:50.158Z,13.18
2022-10-01T09:36:00.332Z,13.29
2022-10-01T09:41:05.584Z,13.37
2022-10-01T09:46:17.276Z,13.49
2022-10-01T09:51:25.384Z,13.64
2022-10-01T09:56:39.123Z,13.78
2022-10-01T10:01:53.492Z,13.84
2022-10-01T10:07:05.218Z,13.87
2022-10-01T10:12:25.320Z,13.96
2022-10-01T10:17:28.053Z,14.13
2022-10-01T10:22:30.732Z,14.24
2022-10-01T10:27:33.590Z,14.37
2022-10-01T10:32:36.579Z,14.51
2022-10-01T10:37:46.962Z,14.55
2022-10-01T10:42:55.304Z,14.62
2022-10-01T10:47:58.498Z,14.68
2022-10-01T10:53:19.122Z,14.76
2022-10-01T10:58:26.492Z,14.80
2022-10-01T11:03:32.503Z,14.87
2022-10-01T11:08:35.935Z,14.98
2022-10-01T11:13:50.702Z,15.09
2022-10-01T11:19:20.230Z,15.17
2022-10-01T11:24:46.273Z,15.29
2022-10-01T11:30:01.669Z,15.49
2022-10-01T11:35:19.539Z,15.59
2022-10-01T11:40:33.936Z,15.72
2022-10-01T11:45:43.560Z,15.86
2022-10-01T11:50:52.220Z,15.94
2022-10-01T11:56:20.948Z,16.18
2022-10-01T12:02:15.434Z,16.34
2022-10-01T12:07:36.262Z,16.45
2022-10-01T12:12:47.479Z,16.45
2022-10-01T12:17:55.596Z,16.51
2022-10-01T12:23:02.592Z,16.65
2022-10-01T12:28:13.042Z,16.73
2022-10-01T12:33:31.345Z,16.79
2022-10-01T12:38:58.029Z,16.94
2022-10-01T12:44:15.332Z,17.09
2022-10-01T12:49:32.916Z,17.09
2022-10-01T12:54:50.499Z,16.95
2022-10-01T13:00:05.271Z,16.89
2022-10-01T13:05:20.095Z,16.96
2022-10-01T13:10:38.651Z,17.01
2022-10-01T13:15:47.745Z,16.89
2022-10-01T13:20:54.247Z,16.85
2022-10-01T13:26:06.206Z,16.96
2022-10-01T13:31:15.010Z,17.08
2022-10-01T13:36:29.442Z,17.15
2022-10-01T13:41:34.827Z,17.11
2022-10-01T13:46:56.637Z,17.02
2022-10-01T13:51:59.680Z,16.98
2022-10-01T13:57:36.273Z,17.08
2022-10-01T14:02:43.359Z,17.18
2022-10-01T14:07:50.289Z,17.14
2022-10-01T14:13:15.636Z,16.87
2022-10-01T14:18:23.579Z,16.73
2022-10-01T14:23:39.431Z,16.44
2022-10-01T14:29:00.300Z,16.06
2022-10-01T14:34:54.144Z,15.65
2022-10-01T14:40:23.964Z,15.27
2022-10-01T14:45:27.683Z,14.94
2022-10-01T14:50:34.256Z,14.69
2022-10-01T14:55:37.133Z,14.45
2022-10-01T15:00:48.086Z,14.19
2022-10-01T15:05:51.723Z,13.92
2022-10-01T15:11:01.074Z,13.67
2022-10-01T15:16:04.784Z,13.46
2022-10-01T15:21:07.727Z,13.25
2022-10-01T15:26:14.052Z,13.06
2022-10-01T15:31:17.360Z,12.88
2022-10-01T15:36:20.351Z,12.74
2022-10-01T15:41:33.325Z,12.62
2022-10-01T15:46:37.979Z,12.47
2022-10-01T15:52:28.617Z,12.25
2022-10-01T15:57:33.637Z,12.01
2022-10-01T16:02:36.476Z,11.78
2022-10-01T16:07:40.657Z,11.57
2022-10-01T16:12:44.303Z,11.43
2022-10-01T16:18:21.370Z,11.33
2022-10-01T16:23:44.887Z,11.24
2022-10-01T16:28:47.720Z,11.12
2022-10-01T16:33:50.458Z,11.01
2022-10-01T16:38:53.776Z,10.92
2022-10-01T16:43:57.418Z,10.86
2022-10-01T16:49:00.188Z,10.82
2022-10-01T16:54:03.835Z,10.81
2022-10-01T16:59:06.550Z,10.78
2022-10-01T17:04:15.801Z,10.74
2022-10-01T17:09:18.667Z,10.68
2022-10-01T17:14:21.685Z,10.67
2022-10-01T17:19:25.013Z,10.68
2022-10-01T17:24:27.755Z,10.70
2022-10-01T17:29:32.332Z,10.67
2022-10-01T17:34:35.775Z,10.63
2022-10-01T17:39:39.510Z,10.58
2022-10-01T17:44:42.412Z,10.58
2022-10-01T17:49:45.045Z,10.59
2022-10-01T17:54:47.727Z,10.61
2022-10-01T17:59:51.902Z,10.58
2022-10-01T18:04:54.702Z,10.55
2022-10-01T18:09:57.484Z,10.56
2022-10-01T18:15:01.095Z,10.59
2022-10-01T18:20:06.517Z,10.62
2022-10-01T18:25:09.391Z,10.59
2022-10-01T18:30:12.864Z,10.57
2022-10-01T18:35:21.298Z,10.59
2022-10-01T18:40:30.749Z,10.63
2022-10-01T18:45:34.274Z,10.64
2022-10-01T18:50:52.682Z,10.63
2022-10-01T18:56:01.221Z,10.60
2022-10-01T19:01:27.554Z,10.59
2022-10-01T19:06:37.821Z,10.62
2022-10-01T19:12:27.075Z,10.63
2022-10-01T19:17:51.255Z,10.61
2022-10-01T19:23:35.715Z,10.57
2022-10-01T19:28:42.717Z,10.57
2022-10-01T19:33:56.887Z,10.59
2022-10-01T19:39:04.448Z,10.58
2022-10-01T19:44:15.437Z,10.53
2022-10-01T19:49:30.771Z,10.54
2022-10-01T19:54:37.520Z,10.55
2022-10-01T19:59:40.997Z,10.56
2022-10-01T20:04:55.468Z,10.55
2022-10-01T20:10:48.347Z,10.57
2022-10-01T20:16:19.235Z,10.59
2022-10-01T20:21:39.878Z,10.61
2022-10-01T20:26:48.431Z,10.60
2022-10-01T20:32:13.392Z,10.57
2022-10-01T20:37:18.999Z,10.53
2022-10-01T20:42:31.065Z,10.47
2022-10-01T20:47:47.791Z,10.41
2022-10-01T20:53:11.590Z,10.36
2022-10-01T20:58:23.807Z,10.32
2022-10-01T21:03:34.884Z,10.29
2022-10-01T21:08:50.710Z,10.28
2022-10-01T21:14:03.485Z,10.34
2022-10-01T21:19:25.718Z,10.35
2022-10-01T21:25:12.850Z,10.29
2022-10-01T21:30:16.786Z,10.30
2022-10-01T21:35:33.292Z,10.31
2022-10-01T21:40:54.139Z,10.27
2022-10-01T21:46:07.706Z,10.21
2022-10-01T21:51:17.644Z,10.08
2022-10-01T21:56:32.611Z,9.94
2022-10-01T22:02:03.390Z,9.87
2022-10-01T22:07:13.505Z,9.89
2022-10-01T22:12:16.791Z,9.89
2022-10-01T22:17:26.122Z,9.86
2022-10-01T22:22:34.089Z,9.79
2022-10-01T22:27:44.319Z,9.76
2022-10-01T22:32:55.928Z,9.70
2022-10-01T22:38:07.330Z,9.71
2022-10-01T22:43:12.187Z,9.72
2022-10-01T22:48:28.732Z,9.69
2022-10-01T22:54:00.331Z,9.62
2022-10-01T22:59:36.721Z,9.57
2022-10-01T23:04:39.349Z,9.52
2022-10-01T23:09:47.289Z,9.49
2022-10-01T23:15:04.429Z,9.53
2022-10-01T23:20:10.768Z,9.49
2022-10-01T23:25:19.239Z,9.42
2022-10-01T23:30:22.283Z,9.41
2022-10-01T23:35:27.995Z,9.41
2022-10-01T23:40:40.956Z,9.39
2022-10-01T23:45:48.057Z,9.40
2022-10-01T23:51:09.848Z,9.44
2022-10-01T23:56:38.752Z,9.45
